createdAt,value
2019-04-11T00:00:33.579Z,59919.29
2019-04-11T00:03:02.980Z,59899.99
2019-04-11T00:05:31.447Z,59924.37
2019-04-11T00:08:00.161Z,59892.88
2019-04-11T00:10:29.272Z,59886.78
2019-04-11T00:12:57.932Z,59911.17
2019-04-11T00:15:27.370Z,59911.17
2019-04-11T00:17:56.508Z,59887.80
2019-04-11T00:20:25.791Z,59910.15
2019-04-11T00:22:55.233Z,59897.96
2019-04-11T00:25:23.862Z,59851.22
2019-04-11T00:27:53.139Z,59897.96
2019-04-11T00:30:21.516Z,59906.09
2019-04-11T00:32:49.941Z,59908.12
2019-04-11T00:35:19.482Z,59890.84
2019-04-11T00:37:48.006Z,59886.78
2019-04-11T00:40:17.488Z,59895.93
2019-04-11T00:42:47.130Z,59922.34
2019-04-11T00:45:15.848Z,59880.68
2019-04-11T00:47:44.994Z,59936.57
2019-04-11T00:50:13.512Z,59918.28
2019-04-11T00:52:41.897Z,59904.05
2019-04-11T00:55:11.258Z,59896.94
2019-04-11T00:57:39.833Z,59929.46
2019-04-11T01:00:09.588Z,59899.99
2019-04-11T01:02:39.170Z,59903.04
2019-04-11T01:05:09.606Z,59909.13
2019-04-11T01:07:38.734Z,59907.10
2019-04-11T01:10:08.067Z,59899.99
2019-04-11T01:12:36.654Z,59912.18
2019-04-11T01:15:08.540Z,59884.75
2019-04-11T01:17:37.180Z,59896.94
2019-04-11T01:20:07.375Z,59919.29
2019-04-11T01:22:36.234Z,59901.00
2019-04-11T01:25:06.549Z,59909.13
2019-04-11T01:27:36.154Z,59915.23
2019-04-11T01:30:08.783Z,59896.94
2019-04-11T01:32:38.138Z,59896.94
2019-04-11T01:35:06.990Z,59905.07
2019-04-11T01:37:35.909Z,59913.20
2019-04-11T01:40:05.546Z,59933.52
2019-04-11T01:42:35.608Z,59907.10
2019-04-11T01:45:05.494Z,59910.15
2019-04-11T01:47:44.849Z,59904.05
2019-04-11T01:50:14.832Z,59925.39
2019-04-11T01:52:44.583Z,59928.44
2019-04-11T01:55:14.381Z,59909.13
2019-04-11T01:57:43.562Z,59914.21
2019-04-11T02:00:17.650Z,59910.15
2019-04-11T02:02:47.755Z,59922.34
2019-04-11T02:05:18.780Z,59923.36
2019-04-11T02:07:47.247Z,59922.34
2019-04-11T02:10:16.805Z,59920.31
2019-04-11T02:12:45.670Z,59884.75
2019-04-11T02:15:14.994Z,59905.07
2019-04-11T02:17:43.435Z,59925.39
2019-04-11T02:20:12.574Z,59901.00
2019-04-11T02:22:42.614Z,59902.02
2019-04-11T02:25:16.436Z,59919.29
2019-04-11T02:27:46.104Z,59921.32
2019-04-11T02:30:17.887Z,59920.31
2019-04-11T02:32:47.366Z,59919.29
2019-04-11T02:35:17.172Z,59928.44
2019-04-11T02:37:47.611Z,59878.65
2019-04-11T02:40:17.483Z,59895.93
2019-04-11T02:42:47.487Z,59921.32
2019-04-11T02:45:27.110Z,59910.15
2019-04-11T02:47:48.593Z,59893.89
2019-04-11T02:50:21.007Z,59923.36
2019-04-11T02:52:47.500Z,59899.99
2019-04-11T02:55:17.196Z,59928.44
2019-04-11T02:57:46.141Z,59929.46
2019-04-11T03:00:15.979Z,59921.32
2019-04-11T03:02:47.660Z,59912.18
2019-04-11T03:05:16.433Z,59921.32
2019-04-11T03:07:45.852Z,59935.55
2019-04-11T03:10:14.381Z,59941.65
2019-04-11T03:12:43.581Z,59912.18
2019-04-11T03:15:28.781Z,59923.36
2019-04-11T03:17:45.933Z,59926.41
2019-04-11T03:20:23.957Z,59931.49
2019-04-11T03:22:44.923Z,59920.31
2019-04-11T03:25:13.736Z,59896.94
2019-04-11T03:27:43.274Z,59940.63
2019-04-11T03:30:19.572Z,59927.42
2019-04-11T03:36:08.104Z,59889.83
2019-04-11T03:38:04.190Z,59914.21
2019-04-11T03:40:32.300Z,59951.81
2019-04-11T03:42:59.808Z,59909.13
2019-04-11T03:45:36.400Z,59926.41
2019-04-11T03:48:02.465Z,59906.09
2019-04-11T03:50:23.208Z,59894.91
2019-04-11T03:52:49.347Z,59915.23
2019-04-11T03:55:19.363Z,59932.50
2019-04-11T03:57:49.164Z,59939.61
2019-04-11T04:00:19.425Z,59924.37
2019-04-11T04:02:49.531Z,59909.13
2019-04-11T04:05:18.291Z,59905.07
2019-04-11T04:07:48.844Z,59893.89
2019-04-11T04:10:19.932Z,59933.52
2019-04-11T04:12:48.889Z,59881.70
2019-04-11T04:15:35.868Z,59928.44
2019-04-11T04:17:55.259Z,59924.37
2019-04-11T04:20:42.057Z,59928.44
2019-04-11T04:23:16.669Z,59906.09
2019-04-11T04:25:47.233Z,59886.78
2019-04-11T04:28:15.927Z,59927.42
2019-04-11T04:30:45.385Z,59937.58
2019-04-11T04:33:14.690Z,59910.15
2019-04-11T04:35:44.784Z,59886.78
2019-04-11T04:38:14.096Z,59934.54
2019-04-11T04:41:00.410Z,59916.25
2019-04-11T04:43:18.711Z,59909.13
2019-04-11T04:46:07.407Z,59917.26
2019-04-11T04:48:20.697Z,59917.26
2019-04-11T04:50:48.880Z,59903.04
2019-04-11T04:53:18.077Z,59941.65
2019-04-11T04:55:50.042Z,59925.39
2019-04-11T04:58:20.214Z,59912.18
2019-04-11T05:00:48.990Z,59901.00
2019-04-11T05:03:19.899Z,59889.83
2019-04-11T05:05:48.595Z,59923.36
2019-04-11T05:08:18.566Z,59927.42
2019-04-11T05:10:47.203Z,59927.42
2019-04-11T05:13:17.166Z,59914.21
2019-04-11T05:15:45.777Z,59948.76
2019-04-11T05:18:16.980Z,59896.94
2019-04-11T05:20:44.384Z,59954.86
2019-04-11T05:23:13.736Z,59897.96
2019-04-11T05:25:42.543Z,59892.88
2019-04-11T05:28:12.023Z,59939.61
2019-04-11T05:30:40.490Z,59932.50
2019-04-11T05:33:09.567Z,59916.25
2019-04-11T05:35:38.114Z,59914.21
2019-04-11T05:38:06.508Z,59916.25
2019-04-11T05:40:34.903Z,59941.65
2019-04-11T05:43:03.863Z,59904.05
2019-04-11T05:45:32.354Z,59932.50
2019-04-11T05:48:01.727Z,59893.89
2019-04-11T05:50:32.003Z,59909.13
2019-04-11T05:53:03.487Z,59914.21
2019-04-11T05:55:32.328Z,59927.42
2019-04-11T05:58:07.798Z,59908.12
2019-04-11T06:00:42.300Z,59875.61
2019-04-11T06:03:11.165Z,59937.58
2019-04-11T06:05:59.711Z,59917.26
2019-04-11T06:08:28.485Z,59911.17
2019-04-11T06:11:16.444Z,59910.15
2019-04-11T06:13:45.148Z,59912.18
2019-04-11T06:16:14.605Z,59886.78
2019-04-11T06:18:45.909Z,59921.32
2019-04-11T06:21:22.401Z,59933.52
2019-04-11T06:24:09.930Z,59916.25
2019-04-11T06:26:42.952Z,59911.17
2019-04-11T06:29:18.305Z,59914.21
2019-04-11T06:31:45.372Z,59911.17
2019-04-11T06:34:13.884Z,59894.91
2019-04-11T06:36:49.701Z,59893.89
2019-04-11T06:39:21.043Z,59904.05
2019-04-11T06:41:57.258Z,59943.68
2019-04-11T06:44:28.020Z,59927.42
2019-04-11T06:47:13.789Z,59913.20
2019-04-11T06:49:50.922Z,59897.96
2019-04-11T06:52:19.400Z,59938.60
2019-04-11T06:55:08.758Z,59894.91
2019-04-11T06:57:38.599Z,59889.83
2019-04-11T07:00:11.026Z,59893.89
2019-04-11T07:02:41.429Z,59892.88
2019-04-11T07:05:12.370Z,59889.83
2019-04-11T07:07:43.033Z,59919.29
2019-04-11T07:10:11.908Z,59929.46
2019-04-11T07:12:42.812Z,59893.89
2019-04-11T07:15:16.626Z,59889.83
2019-04-11T07:18:06.091Z,59904.05
2019-04-11T07:20:45.569Z,59904.05
2019-04-11T07:23:32.924Z,59891.86
2019-04-11T07:26:16.595Z,59911.17
2019-04-11T07:28:47.912Z,59911.17
2019-04-11T07:31:21.768Z,59909.13
2019-04-11T07:33:54.651Z,59902.02
2019-04-11T07:36:41.454Z,59887.80
2019-04-11T07:39:12.858Z,59888.81
2019-04-11T07:41:45.332Z,59925.39
2019-04-11T07:44:15.739Z,59916.25
2019-04-11T07:47:14.668Z,59909.13
2019-04-11T07:49:37.143Z,59886.78
2019-04-11T07:52:09.653Z,59887.80
2019-04-11T07:54:38.989Z,59889.83
2019-04-11T07:57:28.382Z,59895.93
2019-04-11T08:00:00.131Z,59892.88
2019-04-11T08:02:37.610Z,59893.89
2019-04-11T08:05:21.536Z,59876.62
2019-04-11T08:07:57.439Z,59882.71
2019-04-11T08:10:33.575Z,59881.70
2019-04-11T08:13:10.201Z,59884.75
2019-04-11T08:15:56.203Z,59889.83
2019-04-11T08:18:32.804Z,59875.61
2019-04-11T08:21:19.947Z,59905.07
2019-04-11T08:23:50.104Z,59892.88
2019-04-11T08:26:20.134Z,59892.88
2019-04-11T08:28:59.604Z,59875.61
2019-04-11T08:31:36.774Z,59896.94
2019-04-11T08:34:06.935Z,59880.68
2019-04-11T08:36:47.701Z,59878.65
2019-04-11T08:39:18.185Z,60483.25
2019-04-11T08:42:05.150Z,60506.62
2019-04-11T08:44:34.228Z,60505.60
2019-04-11T08:47:04.424Z,60477.15
2019-04-11T08:49:39.894Z,60510.68
2019-04-11T08:52:15.996Z,60510.68
2019-04-11T08:54:58.835Z,60470.04
2019-04-11T08:57:31.931Z,60486.29
2019-04-11T09:00:10.689Z,60476.13
2019-04-11T09:02:39.333Z,60476.13
2019-04-11T09:05:26.959Z,60506.62
2019-04-11T09:07:58.069Z,60495.44
2019-04-11T09:10:44.374Z,60486.29
2019-04-11T09:13:15.251Z,60497.47
2019-04-11T09:16:01.767Z,60490.36
2019-04-11T09:18:32.375Z,60494.43
2019-04-11T09:21:05.265Z,60466.99
2019-04-11T09:23:35.693Z,60508.65
2019-04-11T09:26:21.559Z,60480.20
2019-04-11T09:28:51.489Z,60482.23
2019-04-11T09:31:38.496Z,60483.25
2019-04-11T09:34:09.171Z,60488.33
2019-04-11T09:36:49.232Z,60471.05
2019-04-11T09:39:31.447Z,60471.05
2019-04-11T09:42:01.469Z,60472.07
2019-04-11T09:44:49.480Z,60458.86
2019-04-11T09:47:34.790Z,60470.04
2019-04-11T09:50:22.413Z,60448.70
2019-04-11T09:52:54.430Z,60488.33
2019-04-11T09:55:41.651Z,60472.07
2019-04-11T09:58:27.489Z,60486.29
2019-04-11T10:01:13.887Z,60456.82
2019-04-11T10:03:43.163Z,60455.81
2019-04-11T10:06:23.727Z,60459.87
2019-04-11T10:08:57.641Z,60456.82
2019-04-11T10:11:28.254Z,60445.65
2019-04-11T10:14:10.114Z,60440.57
2019-04-11T10:16:56.462Z,60445.65
2019-04-11T10:19:27.718Z,60421.26
2019-04-11T10:21:58.523Z,60420.24
2019-04-11T10:24:32.676Z,60451.75
2019-04-11T10:27:06.640Z,60417.20
2019-04-11T10:29:39.795Z,60397.89
2019-04-11T10:32:10.748Z,60454.79
2019-04-11T10:34:43.914Z,60456.82
2019-04-11T10:37:14.334Z,60413.13
2019-04-11T10:39:53.666Z,60407.03
2019-04-11T10:42:23.540Z,60428.37
2019-04-11T10:45:06.729Z,60421.26
2019-04-11T10:47:37.116Z,60460.89
2019-04-11T10:50:17.410Z,60414.14
2019-04-11T10:52:48.842Z,60431.42
2019-04-11T10:55:30.850Z,60441.58
2019-04-11T10:58:04.813Z,60451.75
2019-04-11T11:00:53.637Z,60435.48
2019-04-11T11:03:24.370Z,60426.34
2019-04-11T11:06:00.370Z,60421.26
2019-04-11T11:08:33.566Z,60399.92
2019-04-11T11:11:03.958Z,60414.14
2019-04-11T11:13:40.738Z,60411.10
2019-04-11T11:16:11.819Z,60441.58
2019-04-11T11:19:19.544Z,60414.14
2019-04-11T11:21:18.189Z,60438.53
2019-04-11T11:24:00.834Z,60411.10
2019-04-11T11:26:29.790Z,60444.63
2019-04-11T11:29:15.287Z,60425.32
2019-04-11T11:31:52.514Z,60432.44
2019-04-11T11:34:28.420Z,60431.42
2019-04-11T11:36:58.773Z,60431.42
2019-04-11T11:39:29.065Z,60414.14
2019-04-11T11:42:15.158Z,60408.05
2019-04-11T11:44:57.360Z,60407.03
2019-04-11T11:47:44.858Z,60414.14
2019-04-11T11:50:18.806Z,60424.31
2019-04-11T11:53:08.249Z,60415.16
2019-04-11T11:55:35.616Z,60431.42
2019-04-11T11:58:16.800Z,60415.16
2019-04-11T12:00:42.108Z,60432.44
2019-04-11T12:03:12.882Z,60408.05
2019-04-11T12:05:48.230Z,60423.29
2019-04-11T12:08:16.479Z,60434.47
2019-04-11T12:10:49.591Z,60405.00
2019-04-11T12:13:19.612Z,60413.13
2019-04-11T12:15:53.273Z,60441.58
2019-04-11T12:18:26.765Z,60411.10
2019-04-11T12:21:01.044Z,60435.48
2019-04-11T12:23:46.433Z,60401.95
2019-04-11T12:26:06.295Z,60424.31
2019-04-11T12:28:52.187Z,60417.20
2019-04-11T12:31:23.882Z,60395.86
2019-04-11T12:34:10.266Z,60402.97
2019-04-11T12:36:50.893Z,60417.20
2019-04-11T12:39:25.805Z,60418.21
2019-04-11T12:41:58.518Z,60418.21
2019-04-11T12:44:31.252Z,60427.36
2019-04-11T12:47:19.460Z,60435.48
2019-04-11T12:49:53.200Z,60424.31
2019-04-11T12:52:23.742Z,60424.31
2019-04-11T12:54:56.284Z,60415.16
2019-04-11T12:57:32.346Z,60381.63
2019-04-11T13:00:18.035Z,60394.84
2019-04-11T13:03:00.375Z,60422.27
2019-04-11T13:05:31.836Z,60453.78
2019-04-11T13:08:16.758Z,60423.29
2019-04-11T13:10:47.065Z,60426.34
2019-04-11T13:13:33.662Z,60406.02
2019-04-11T13:16:12.079Z,60433.45
2019-04-11T13:18:53.863Z,60456.82
2019-04-11T13:21:40.568Z,60420.24
2019-04-11T13:24:16.480Z,60420.24
2019-04-11T13:27:02.796Z,60423.29
2019-04-11T13:29:39.087Z,60421.26
2019-04-11T13:32:25.098Z,60422.27
2019-04-11T13:35:00.985Z,60419.23
2019-04-11T13:37:47.436Z,60426.34
2019-04-11T13:40:20.525Z,60423.29
2019-04-11T13:43:07.098Z,60437.52
2019-04-11T13:45:52.671Z,60427.36
2019-04-11T13:48:38.713Z,60420.24
2019-04-11T13:51:11.505Z,60432.44
2019-04-11T13:53:57.834Z,60426.34
2019-04-11T13:56:27.886Z,60422.27
2019-04-11T13:59:00.598Z,60409.07
2019-04-11T14:01:29.061Z,60430.40
2019-04-11T14:04:01.868Z,60417.20
2019-04-11T14:06:30.256Z,60450.73
2019-04-11T14:09:09.607Z,60426.34
2019-04-11T14:11:40.045Z,60441.58
2019-04-11T14:14:13.030Z,60428.37
2019-04-11T14:16:43.360Z,60423.29
2019-04-11T14:19:16.386Z,60397.89
2019-04-11T14:21:46.439Z,60425.32
2019-04-11T14:24:25.481Z,60448.70
2019-04-11T14:26:58.528Z,60419.23
2019-04-11T14:29:45.399Z,60430.40
2019-04-11T14:32:15.718Z,60423.29
2019-04-11T14:34:52.186Z,60426.34
2019-04-11T14:37:37.775Z,60464.96
2019-04-11T14:40:00.139Z,60429.39
2019-04-11T14:42:30.270Z,60430.40
2019-04-11T14:44:58.937Z,60444.63
2019-04-11T14:47:44.851Z,60456.82
2019-04-11T14:50:13.703Z,60457.84
2019-04-11T14:52:46.521Z,60421.26
2019-04-11T14:55:14.166Z,60443.61
2019-04-11T14:57:46.739Z,60455.81
2019-04-11T15:00:19.052Z,60451.75
2019-04-11T15:02:55.018Z,60425.32
2019-04-11T15:05:33.998Z,60436.50
2019-04-11T15:08:02.389Z,60431.42
2019-04-11T15:10:38.492Z,60444.63
2019-04-11T15:13:08.923Z,60456.82
2019-04-11T15:15:42.069Z,60425.32
2019-04-11T15:18:10.462Z,60448.70
2019-04-11T15:20:41.247Z,60439.55
2019-04-11T15:23:15.138Z,60426.34
2019-04-11T15:25:45.236Z,60436.50
2019-04-11T15:28:30.640Z,60446.66
2019-04-11T15:31:18.997Z,60431.42
2019-04-11T15:33:49.236Z,60443.61
2019-04-11T15:36:27.660Z,60435.48
2019-04-11T15:39:12.911Z,60438.53
2019-04-11T15:41:43.091Z,60451.75
2019-04-11T15:44:29.507Z,60438.53
2019-04-11T15:47:00.864Z,60411.10
2019-04-11T15:49:39.867Z,60448.70
2019-04-11T15:52:09.884Z,60430.40
2019-04-11T15:54:56.442Z,60433.45
2019-04-11T15:57:26.934Z,60453.78
2019-04-11T16:00:13.710Z,60423.29
2019-04-11T16:02:44.318Z,60455.81
2019-04-11T16:05:26.146Z,60441.58
2019-04-11T16:08:08.596Z,60465.97
2019-04-11T16:10:37.291Z,60461.91
2019-04-11T16:13:13.443Z,60457.84
2019-04-11T16:15:46.195Z,60451.75
2019-04-11T16:18:22.962Z,60451.75
2019-04-11T16:21:00.397Z,60448.70
2019-04-11T16:23:33.410Z,60459.87
2019-04-11T16:26:03.447Z,60426.34
2019-04-11T16:28:46.001Z,60429.39
2019-04-11T16:31:14.454Z,60456.82
2019-04-11T16:33:53.737Z,60436.50
2019-04-11T16:36:27.042Z,60435.48
2019-04-11T16:38:58.326Z,60440.57
2019-04-11T16:41:44.231Z,60452.76
2019-04-11T16:44:30.230Z,60451.75
2019-04-11T16:47:18.153Z,60460.89
2019-04-11T16:49:46.583Z,60460.89
2019-04-11T16:52:15.061Z,60449.71
2019-04-11T16:54:43.439Z,60466.99
2019-04-11T16:57:13.706Z,60453.78
2019-04-11T16:59:44.672Z,60450.73
2019-04-11T17:02:13.101Z,60456.82
2019-04-11T17:04:41.573Z,60487.31
2019-04-11T17:07:26.692Z,60487.31
2019-04-11T17:09:57.513Z,60471.05
2019-04-11T17:12:26.651Z,60453.78
2019-04-11T17:14:55.606Z,60453.78
2019-04-11T17:17:26.180Z,60461.91
2019-04-11T17:19:54.325Z,60472.07
2019-04-11T17:22:22.655Z,60460.89
2019-04-11T17:24:51.062Z,60444.63
2019-04-11T17:27:20.980Z,60470.04
2019-04-11T17:29:49.586Z,60459.87
2019-04-11T17:32:17.981Z,60466.99
2019-04-11T17:34:46.387Z,60466.99
2019-04-11T17:37:14.792Z,60446.66
2019-04-11T17:39:43.194Z,60473.09
2019-04-11T17:42:13.269Z,60473.09
2019-04-11T17:44:41.968Z,60480.20
2019-04-11T17:47:10.668Z,60481.21
2019-04-11T17:49:39.066Z,60488.33
2019-04-11T17:52:07.458Z,60461.91
2019-04-11T17:54:35.851Z,60472.07
2019-04-11T17:57:04.606Z,60481.21
2019-04-11T17:59:33.311Z,60460.89
2019-04-11T18:02:01.717Z,60465.97
2019-04-11T18:04:30.108Z,60454.79
2019-04-11T18:06:58.565Z,60487.31
2019-04-11T18:09:27.061Z,60487.31
2019-04-11T18:11:56.130Z,60482.23
2019-04-11T18:14:25.131Z,60482.23
2019-04-11T18:16:53.521Z,60468.00
2019-04-11T18:19:22.012Z,60464.96
2019-04-11T18:21:50.418Z,60478.16
2019-04-11T18:24:19.944Z,60478.16
2019-04-11T18:26:51.792Z,60461.91
2019-04-11T18:29:22.758Z,60459.87
2019-04-11T18:31:50.349Z,60453.78
2019-04-11T18:34:19.041Z,60456.82
2019-04-11T18:36:47.442Z,60469.02
2019-04-11T18:39:15.838Z,60454.79
2019-04-11T18:41:44.530Z,60498.49
2019-04-11T18:44:12.916Z,60465.97
2019-04-11T18:46:41.671Z,60454.79
2019-04-11T18:49:10.083Z,60484.26
2019-04-11T18:51:38.469Z,60489.34
2019-04-11T18:54:07.855Z,60476.13
2019-04-11T18:56:38.012Z,60487.31
2019-04-11T18:59:06.680Z,60475.12
2019-04-11T19:01:38.953Z,60464.96
2019-04-11T19:04:05.628Z,60489.34
2019-04-11T19:06:34.895Z,60455.81
2019-04-11T19:09:05.314Z,60494.43
2019-04-11T19:11:33.719Z,60487.31
2019-04-11T19:14:02.110Z,60505.60
2019-04-11T19:16:30.489Z,60505.60
2019-04-11T19:19:01.720Z,60471.05
2019-04-11T19:21:29.414Z,60474.10
2019-04-11T19:23:57.799Z,60490.36
2019-04-11T19:26:26.198Z,60462.92
2019-04-11T19:28:55.133Z,60486.29
2019-04-11T19:31:27.183Z,60476.13
2019-04-11T19:33:54.292Z,60504.59
2019-04-11T19:36:22.772Z,60481.21
2019-04-11T19:38:51.177Z,60449.71
2019-04-11T19:41:20.459Z,60489.34
2019-04-11T19:43:49.802Z,60475.12
2019-04-11T19:46:20.334Z,60481.21
2019-04-11T19:48:48.442Z,60495.44
2019-04-11T19:51:16.832Z,60478.16
2019-04-11T19:53:45.221Z,60487.31
2019-04-11T19:56:15.261Z,60491.38
2019-04-11T19:58:43.652Z,60460.89
2019-04-11T20:01:12.302Z,60491.38
2019-04-11T20:03:40.816Z,60505.60
2019-04-11T20:06:09.201Z,60491.38
2019-04-11T20:08:37.885Z,60479.18
2019-04-11T20:11:06.280Z,60481.21
2019-04-11T20:13:34.662Z,60485.28
2019-04-11T20:16:03.142Z,60524.91
2019-04-11T20:18:31.530Z,60487.31
2019-04-11T20:20:59.933Z,60481.21
2019-04-11T20:23:28.396Z,60518.82
2019-04-11T20:25:56.793Z,60511.70
2019-04-11T20:28:26.799Z,60497.47
2019-04-11T20:30:55.760Z,60511.70
2019-04-11T20:33:27.360Z,60484.26
2019-04-11T20:35:54.571Z,60486.29
2019-04-11T20:38:22.977Z,60484.26
2019-04-11T20:40:52.610Z,60490.36
2019-04-11T20:43:24.520Z,60486.29
2019-04-11T20:45:53.422Z,60491.38
2019-04-11T20:48:22.039Z,60498.49
2019-04-11T20:50:50.441Z,60479.18
2019-04-11T20:53:19.094Z,60473.09
2019-04-11T20:55:47.779Z,60494.43
2019-04-11T20:58:26.805Z,60502.55
2019-04-11T21:00:50.844Z,60517.80
2019-04-11T21:03:16.826Z,60491.38
2019-04-11T21:05:45.502Z,60537.11
2019-04-11T21:08:13.913Z,60497.47
2019-04-11T21:10:42.585Z,60489.34
2019-04-11T21:13:10.995Z,60504.59
2019-04-11T21:15:39.399Z,60512.72
2019-04-11T21:18:07.799Z,60501.54
2019-04-11T21:20:36.186Z,60483.25
2019-04-11T21:23:04.618Z,60491.38
2019-04-11T21:25:33.005Z,60491.38
2019-04-11T21:28:01.482Z,60503.57
2019-04-11T21:30:30.453Z,60512.72
2019-04-11T21:33:01.093Z,60488.33
2019-04-11T21:35:30.944Z,60499.50
2019-04-11T21:38:00.373Z,60509.67
2019-04-11T21:40:29.405Z,60483.25
2019-04-11T21:42:59.461Z,60480.20
2019-04-11T21:45:28.126Z,60510.68
2019-04-11T21:47:56.530Z,60514.75
2019-04-11T21:50:24.912Z,60506.62
2019-04-11T21:52:53.586Z,60493.41
2019-04-11T21:55:21.990Z,60501.54
2019-04-11T21:57:50.674Z,60523.89
2019-04-11T22:00:32.758Z,60522.88
2019-04-11T22:03:01.308Z,60506.62
2019-04-11T22:05:29.978Z,60507.64
2019-04-11T22:08:00.882Z,60476.13
2019-04-11T22:10:29.660Z,60488.33
2019-04-11T22:12:58.231Z,60519.83
2019-04-11T22:15:26.627Z,60485.28
2019-04-11T22:17:55.023Z,60500.52
2019-04-11T22:20:23.706Z,60521.86
2019-04-11T22:22:52.400Z,60519.83
2019-04-11T22:25:20.795Z,60510.68
2019-04-11T22:27:51.070Z,60510.68
2019-04-11T22:30:20.182Z,60499.50
2019-04-11T22:32:50.532Z,60508.65
2019-04-11T22:35:18.933Z,60510.68
2019-04-11T22:37:47.334Z,60514.75
2019-04-11T22:40:15.725Z,60490.36
2019-04-11T22:42:44.129Z,60522.88
2019-04-11T22:45:12.586Z,60499.50
2019-04-11T22:47:40.992Z,60516.78
2019-04-11T22:50:10.071Z,60494.43
2019-04-11T22:52:39.788Z,60465.97
2019-04-11T22:55:11.263Z,60525.93
2019-04-11T22:57:40.875Z,60488.33
2019-04-11T23:00:14.910Z,60496.46
2019-04-11T23:02:44.997Z,60511.70
2019-04-11T23:05:14.968Z,60478.16
2019-04-11T23:07:45.886Z,60489.34
2019-04-11T23:10:13.771Z,60479.18
2019-04-11T23:12:42.944Z,60500.52
2019-04-11T23:15:14.891Z,60496.46
2019-04-11T23:17:44.039Z,60508.65
2019-04-11T23:20:14.371Z,60497.47
2019-04-11T23:22:43.620Z,60457.84
2019-04-11T23:25:11.958Z,60527.96
2019-04-11T23:27:40.341Z,60480.20
2019-04-11T23:30:09.423Z,60538.12
2019-04-11T23:32:37.812Z,60516.78
2019-04-11T23:35:06.202Z,60477.15
2019-04-11T23:37:36.255Z,60495.44
2019-04-11T23:40:05.847Z,60511.70
2019-04-11T23:42:34.255Z,60492.39
2019-04-11T23:45:02.910Z,60505.60
2019-04-11T23:47:31.698Z,60496.46
2019-04-11T23:50:00.389Z,60499.50
2019-04-11T23:52:29.076Z,60516.78
2019-04-11T23:54:58.242Z,60512.72
2019-04-11T23:57:28.814Z,60496.46
2019-04-11T23:59:59.793Z,60491.38
